Olpe, KS (66865)

4:48 PM CST on December 22, 2014 (GMT -0600)
Emporia Municipal | Change Station
CLOSE
Current Station
Airport
Location: Emporia,
Elevation: 1207 ft
Nearby Weather Stations

Elev 1207 ft 38.33 °N, 96.19 °W | Updated 55 minutes ago

Overcast
Overcast
47 °F
Feels Like 47 °F
N
14
Wind Variable Wind from WNW

Today
High -- | Low -- °F
--% Chance of Precip.
Yesterday
High -- | Low -- °F
Precip. -- in
7:38 AM 5:08 PM
New Moon, 1% visible
Pressure 29.52 in
Visibility 10.0 miles
Clouds Few 3000 ft
Overcast 3700 ft
Dew Point 39 °F
Humidity 74%
Rainfall 0.01 in
Snow Depth Not available.
UV 0 out of 12
Pollen .10 out of 12
Air Quality Not available.
Flu Activity Not available.
METAR KEMP 222153Z AUTO 29012KT 10SM FEW030 OVC037 08/04 A2950 RMK AO2 SLP996 T00830039

More Conditions Fewer Conditions

Pressure 29.52 in
Visibility 10.0 miles
Clouds Few 3000 ft
Overcast 3700 ft
Dew Point 39 °F
Humidity 74%
Rainfall 0.01 in
Snow Depth Not available.
UV 0 out of 12
Pollen .10 out of 12
Air Quality Not available.
Flu Activity Not available.
METAR KEMP 222153Z AUTO 29012KT 10SM FEW030 OVC037 08/04 A2950 RMK AO2 SLP996 T00830039

More Conditions Fewer Conditions

10-Day Weather Forecast

Almanac

Astronomy

Dec. 22, 2014 Rise Set
Actual Time
Civil Twilight
Nautical Twilight
Astronomical Twilight
Moon
Length of Visible Light
Length of Day
Tomorrow will be .
, % of the Moon is Illuminated

Today's Extremes

State Highs State Lows

Community

WunderPhotos

Upload Photos

1,779,695 photos uploaded!

WunderBlogs® & News

Nearby

Air Quality

  Air Quality AQ Index Pollutant
Not available.

Snow Depth

Station Depth Elevation

Earthquake Activity

City Distance Mag. Time & Date
Minimum magnitude displayed is 2.5.

Coastal Water Temperatures

Place Temperature

Nearby Weather Stations